createdAt,value
2018-06-15T00:00:18.834Z,17.19
2018-06-15T00:01:18.792Z,17.20
2018-06-15T00:02:18.754Z,17.17
2018-06-15T00:03:18.712Z,17.20
2018-06-15T00:04:18.669Z,17.13
2018-06-15T00:05:18.625Z,17.19
2018-06-15T00:06:18.586Z,17.19
2018-06-15T00:07:18.543Z,17.14
2018-06-15T00:08:18.500Z,17.20
2018-06-15T00:09:18.459Z,17.13
2018-06-15T00:10:18.416Z,17.13
2018-06-15T00:11:18.375Z,17.20
2018-06-15T00:12:18.336Z,17.17
2018-06-15T00:13:18.291Z,17.20
2018-06-15T00:14:18.249Z,17.16
2018-06-15T00:15:18.211Z,17.20
2018-06-15T00:16:18.171Z,17.16
2018-06-15T00:17:18.126Z,17.12
2018-06-15T00:18:18.087Z,17.17
2018-06-15T00:19:18.051Z,17.16
2018-06-15T00:20:17.999Z,17.16
2018-06-15T00:21:17.961Z,17.10
2018-06-15T00:22:17.915Z,17.13
2018-06-15T00:23:17.876Z,17.09
2018-06-15T00:24:17.835Z,17.13
2018-06-15T00:25:17.794Z,17.09
2018-06-15T00:26:17.752Z,17.09
2018-06-15T00:27:17.710Z,17.10
2018-06-15T00:28:17.666Z,17.07
2018-06-15T00:29:17.628Z,17.13
2018-06-15T00:30:17.591Z,17.05
2018-06-15T00:31:17.544Z,17.10
2018-06-15T00:32:17.498Z,17.04
2018-06-15T00:33:17.459Z,17.12
2018-06-15T00:34:17.417Z,17.10
2018-06-15T00:35:17.384Z,17.02
2018-06-15T00:36:17.336Z,16.99
2018-06-15T00:37:17.293Z,17.02
2018-06-15T00:38:17.249Z,17.01
2018-06-15T00:39:17.207Z,16.98
2018-06-15T00:40:17.167Z,16.92
2018-06-15T00:41:17.132Z,17.04
2018-06-15T00:42:17.082Z,16.98
2018-06-15T00:43:17.046Z,17.01
2018-06-15T00:44:17.001Z,16.97
2018-06-15T00:45:16.958Z,16.95
2018-06-15T00:46:16.917Z,16.98
2018-06-15T00:47:16.875Z,16.89
2018-06-15T00:48:16.835Z,17.02
2018-06-15T00:49:16.792Z,16.99
2018-06-15T00:50:16.750Z,16.99
2018-06-15T00:51:16.711Z,16.95
2018-06-15T00:52:16.667Z,16.87
2018-06-15T00:53:16.627Z,17.02
2018-06-15T00:54:16.583Z,16.99
2018-06-15T00:55:16.544Z,17.01
2018-06-15T00:56:16.506Z,17.01
2018-06-15T00:57:16.458Z,17.07
2018-06-15T00:58:20.470Z,16.97
2018-06-15T00:59:16.375Z,17.02
2018-06-15T01:00:16.333Z,17.02
2018-06-15T01:01:16.293Z,16.97
2018-06-15T01:02:16.247Z,17.02
2018-06-15T01:03:16.209Z,16.97
2018-06-15T01:04:16.167Z,17.02
2018-06-15T01:05:16.125Z,16.99
2018-06-15T01:06:16.085Z,16.99
2018-06-15T01:07:16.043Z,16.97
2018-06-15T01:08:16.001Z,16.92
2018-06-15T01:09:15.957Z,16.94
2018-06-15T01:10:15.916Z,16.99
2018-06-15T01:11:15.886Z,16.98
2018-06-15T01:12:15.835Z,16.98
2018-06-15T01:13:15.797Z,17.10
2018-06-15T01:14:15.753Z,16.94
2018-06-15T01:15:15.708Z,16.94
2018-06-15T01:16:15.668Z,17.01
2018-06-15T01:17:15.624Z,17.12
2018-06-15T01:18:15.580Z,16.98
2018-06-15T01:19:15.539Z,16.98
2018-06-15T01:20:15.498Z,16.98
2018-06-15T01:21:15.457Z,17.10
2018-06-15T01:22:15.418Z,16.92
2018-06-15T01:23:15.373Z,17.07
2018-06-15T01:24:15.331Z,17.12
2018-06-15T01:25:15.291Z,16.95
2018-06-15T01:26:15.246Z,16.94
2018-06-15T01:27:15.205Z,16.95
2018-06-15T01:28:15.165Z,17.04
2018-06-15T01:29:15.124Z,17.01
2018-06-15T01:30:15.082Z,16.97
2018-06-15T01:31:15.040Z,17.01
2018-06-15T01:32:14.997Z,16.92
2018-06-15T01:33:14.955Z,16.99
2018-06-15T01:34:14.915Z,16.99
2018-06-15T01:35:14.873Z,16.99
2018-06-15T01:36:14.832Z,16.99
2018-06-15T01:37:14.794Z,16.97
2018-06-15T01:38:14.752Z,16.99
2018-06-15T01:39:14.705Z,16.97
2018-06-15T01:40:14.665Z,17.02
2018-06-15T01:41:14.624Z,17.02
2018-06-15T01:42:14.583Z,17.02
2018-06-15T01:43:14.538Z,17.05
2018-06-15T01:44:14.500Z,17.05
2018-06-15T01:45:14.456Z,16.98
2018-06-15T01:46:14.413Z,16.99
2018-06-15T01:47:14.374Z,16.99
2018-06-15T01:48:14.334Z,16.99
2018-06-15T01:49:14.291Z,16.92
2018-06-15T01:50:14.252Z,17.02
2018-06-15T01:51:14.208Z,16.86
2018-06-15T01:52:14.164Z,17.01
2018-06-15T01:53:14.123Z,16.87
2018-06-15T01:54:14.079Z,16.97
2018-06-15T01:55:14.038Z,17.01
2018-06-15T01:56:14.002Z,16.92
2018-06-15T01:57:14.003Z,16.95
2018-06-15T01:58:13.912Z,16.89
2018-06-15T01:59:13.872Z,16.98
2018-06-15T02:00:13.831Z,17.02
2018-06-15T02:01:13.810Z,16.98
2018-06-15T02:02:13.745Z,16.97
2018-06-15T02:03:13.704Z,16.99
2018-06-15T02:04:13.661Z,17.01
2018-06-15T02:05:13.624Z,16.99
2018-06-15T02:06:13.582Z,17.05
2018-06-15T02:07:13.536Z,17.01
2018-06-15T02:08:13.495Z,17.02
2018-06-15T02:09:13.457Z,16.99
2018-06-15T02:10:13.414Z,16.98
2018-06-15T02:11:13.378Z,17.02
2018-06-15T02:12:13.331Z,16.97
2018-06-15T02:13:13.289Z,17.02
2018-06-15T02:14:13.245Z,16.95
2018-06-15T02:15:13.202Z,16.95
2018-06-15T02:16:13.170Z,17.02
2018-06-15T02:17:13.120Z,16.98
2018-06-15T02:18:13.077Z,17.04
2018-06-15T02:19:13.035Z,16.98
2018-06-15T02:20:12.995Z,17.04
2018-06-15T02:21:12.954Z,16.97
2018-06-15T02:22:12.911Z,17.02
2018-06-15T02:23:12.869Z,16.97
2018-06-15T02:24:12.829Z,16.97
2018-06-15T02:25:12.793Z,17.02
2018-06-15T02:26:12.743Z,16.99
2018-06-15T02:27:12.708Z,16.97
2018-06-15T02:28:12.665Z,17.01
2018-06-15T02:29:12.622Z,17.01
2018-06-15T02:30:12.576Z,17.02
2018-06-15T02:31:12.536Z,17.01
2018-06-15T02:32:12.497Z,16.98
2018-06-15T02:33:12.466Z,16.89
2018-06-15T02:34:12.419Z,16.99
2018-06-15T02:35:12.370Z,17.05
2018-06-15T02:36:12.326Z,16.94
2018-06-15T02:37:12.286Z,16.92
2018-06-15T02:38:12.261Z,16.91
2018-06-15T02:39:12.203Z,16.91
2018-06-15T02:40:12.162Z,16.87
2018-06-15T02:41:12.118Z,16.89
2018-06-15T02:42:12.077Z,16.91
2018-06-15T02:43:12.039Z,16.94
2018-06-15T02:44:11.995Z,16.92
2018-06-15T02:45:11.955Z,16.87
2018-06-15T02:46:11.913Z,16.89
2018-06-15T02:47:11.867Z,16.92
2018-06-15T02:48:11.831Z,16.84
2018-06-15T02:49:11.792Z,16.84
2018-06-15T02:50:11.742Z,16.84
2018-06-15T02:51:11.704Z,16.94
2018-06-15T02:52:11.662Z,16.91
2018-06-15T02:53:11.619Z,16.77
2018-06-15T02:54:11.575Z,16.80
2018-06-15T02:55:11.537Z,16.83
2018-06-15T02:56:11.492Z,16.80
2018-06-15T02:57:11.451Z,16.79
2018-06-15T02:58:11.408Z,16.72
2018-06-15T02:59:11.365Z,16.76
2018-06-15T03:00:11.324Z,16.69
2018-06-15T03:01:11.282Z,16.61
2018-06-15T03:02:11.244Z,16.62
2018-06-15T03:03:11.203Z,16.62
2018-06-15T03:04:11.159Z,16.59
2018-06-15T03:05:11.116Z,16.61
2018-06-15T03:06:11.074Z,16.50
2018-06-15T03:07:11.032Z,16.50
2018-06-15T03:08:10.990Z,16.44
2018-06-15T03:09:10.948Z,16.47
2018-06-15T03:10:10.905Z,16.54
2018-06-15T03:11:10.874Z,16.44
2018-06-15T03:12:10.826Z,16.43
2018-06-15T03:13:10.782Z,16.47
2018-06-15T03:14:10.743Z,16.40
2018-06-15T03:15:10.699Z,16.34
2018-06-15T03:16:10.661Z,16.34
2018-06-15T03:17:10.617Z,16.37
2018-06-15T03:18:10.571Z,16.39
2018-06-15T03:19:10.528Z,16.37
2018-06-15T03:20:10.489Z,16.41
2018-06-15T03:21:10.445Z,16.28
2018-06-15T03:22:10.401Z,16.28
2018-06-15T03:23:10.359Z,16.31
2018-06-15T03:24:10.319Z,16.26
2018-06-15T03:25:10.280Z,16.31
2018-06-15T03:26:10.235Z,16.28
2018-06-15T03:27:10.193Z,16.36
2018-06-15T03:28:10.150Z,16.22
2018-06-15T03:29:10.110Z,16.32
2018-06-15T03:30:10.066Z,16.29
2018-06-15T03:31:10.026Z,16.21
2018-06-15T03:32:09.984Z,16.26
2018-06-15T03:33:09.941Z,16.32
2018-06-15T03:34:09.896Z,16.39
2018-06-15T03:35:09.856Z,16.32
2018-06-15T03:36:09.813Z,16.34
2018-06-15T03:37:09.772Z,16.32
2018-06-15T03:38:09.728Z,16.36
2018-06-15T03:39:09.687Z,16.36
2018-06-15T03:40:09.644Z,16.25
2018-06-15T03:41:09.604Z,16.25
2018-06-15T03:42:09.561Z,16.39
2018-06-15T03:43:09.520Z,16.24
2018-06-15T03:44:09.477Z,16.32
2018-06-15T03:45:09.435Z,16.36
2018-06-15T03:46:09.393Z,16.37
2018-06-15T03:47:09.350Z,16.37
2018-06-15T03:48:09.313Z,16.36
2018-06-15T03:49:09.267Z,16.37
2018-06-15T03:50:09.224Z,16.36
2018-06-15T03:51:09.181Z,16.40
2018-06-15T03:52:09.140Z,16.37
2018-06-15T03:53:09.100Z,16.43
2018-06-15T03:54:09.056Z,16.43
2018-06-15T03:55:09.015Z,16.41
2018-06-15T03:56:08.973Z,16.43
2018-06-15T03:57:08.934Z,16.40
2018-06-15T03:58:08.891Z,16.44
2018-06-15T03:59:08.854Z,16.47
2018-06-15T04:00:08.805Z,16.44
2018-06-15T04:01:08.762Z,16.50
2018-06-15T04:02:08.719Z,16.46
2018-06-15T04:03:08.678Z,16.50
2018-06-15T04:04:08.646Z,16.50
2018-06-15T04:05:08.596Z,16.57
2018-06-15T04:06:08.553Z,16.54
2018-06-15T04:07:08.511Z,16.57
2018-06-15T04:08:08.469Z,16.50
2018-06-15T04:09:08.427Z,16.59
2018-06-15T04:10:08.384Z,16.59
2018-06-15T04:11:08.341Z,16.55
2018-06-15T04:12:08.301Z,16.58
2018-06-15T04:13:08.266Z,16.58
2018-06-15T04:14:08.220Z,16.61
2018-06-15T04:15:08.173Z,16.57
2018-06-15T04:16:08.133Z,16.62
2018-06-15T04:17:08.092Z,16.57
2018-06-15T04:18:08.051Z,16.58
2018-06-15T04:19:08.007Z,16.72
2018-06-15T04:20:07.965Z,16.73
2018-06-15T04:21:07.923Z,16.72
2018-06-15T04:22:07.884Z,16.69
2018-06-15T04:23:07.842Z,16.77
2018-06-15T04:24:07.796Z,16.79
2018-06-15T04:25:07.756Z,16.77
2018-06-15T04:26:07.714Z,16.79
2018-06-15T04:27:07.672Z,16.73
2018-06-15T04:28:07.629Z,16.76
2018-06-15T04:29:07.589Z,16.77
2018-06-15T04:30:07.546Z,16.74
2018-06-15T04:31:07.505Z,16.69
2018-06-15T04:32:07.468Z,16.68
2018-06-15T04:33:07.425Z,16.86
2018-06-15T04:34:07.377Z,16.76
2018-06-15T04:35:07.337Z,16.74
2018-06-15T04:36:07.294Z,16.84
2018-06-15T04:37:07.257Z,16.86
2018-06-15T04:38:07.217Z,16.80
2018-06-15T04:39:07.169Z,16.86
2018-06-15T04:40:07.127Z,16.82
2018-06-15T04:41:07.086Z,16.89
2018-06-15T04:42:07.043Z,16.84
2018-06-15T04:43:07.002Z,16.91
2018-06-15T04:44:06.960Z,16.83
2018-06-15T04:45:06.926Z,16.87
2018-06-15T04:46:06.880Z,16.89
2018-06-15T04:47:06.839Z,16.91
2018-06-15T04:48:06.795Z,16.99
2018-06-15T04:49:06.751Z,17.02
2018-06-15T04:50:06.724Z,17.02
2018-06-15T04:51:06.668Z,16.99
2018-06-15T04:52:06.630Z,17.01
2018-06-15T04:53:06.585Z,16.97
2018-06-15T04:54:06.545Z,17.12
2018-06-15T04:55:06.499Z,17.05
2018-06-15T04:56:06.458Z,17.05
2018-06-15T04:57:06.417Z,17.13
2018-06-15T04:58:06.376Z,17.10
2018-06-15T04:59:06.337Z,17.10
2018-06-15T05:00:06.291Z,17.17
2018-06-15T05:01:06.255Z,17.22
2018-06-15T05:02:06.214Z,17.30
2018-06-15T05:03:06.166Z,17.28
2018-06-15T05:04:06.126Z,17.28
2018-06-15T05:05:06.084Z,17.19
2018-06-15T05:06:06.041Z,17.32
2018-06-15T05:07:06.002Z,17.41
2018-06-15T05:08:05.961Z,17.31
2018-06-15T05:09:05.917Z,17.24
2018-06-15T05:10:05.874Z,17.35
2018-06-15T05:11:05.832Z,17.42
2018-06-15T05:12:05.794Z,17.38
2018-06-15T05:13:05.749Z,17.47
2018-06-15T05:14:05.706Z,17.50
2018-06-15T05:15:05.667Z,17.52
2018-06-15T05:16:05.626Z,17.56
2018-06-15T05:17:05.584Z,17.57
2018-06-15T05:18:05.541Z,17.56
2018-06-15T05:19:05.500Z,17.53
2018-06-15T05:20:05.459Z,17.54
2018-06-15T05:21:05.418Z,17.63
2018-06-15T05:22:05.380Z,17.59
2018-06-15T05:23:05.337Z,17.60
2018-06-15T05:24:05.292Z,17.66
2018-06-15T05:25:05.254Z,17.71
2018-06-15T05:26:05.209Z,17.72
2018-06-15T05:27:05.173Z,17.76
2018-06-15T05:28:05.130Z,17.86
2018-06-15T05:29:05.088Z,17.86
2018-06-15T05:30:05.045Z,17.94
2018-06-15T05:31:05.008Z,17.95
2018-06-15T05:32:04.964Z,18.06
2018-06-15T05:33:04.925Z,18.03
2018-06-15T05:34:04.882Z,18.05
2018-06-15T05:35:04.844Z,18.05
2018-06-15T05:36:04.802Z,18.12
2018-06-15T05:37:04.757Z,18.09
2018-06-15T05:38:04.714Z,18.11
2018-06-15T05:39:04.673Z,18.19
2018-06-15T05:40:04.635Z,18.15
2018-06-15T05:41:04.591Z,18.21
2018-06-15T05:42:04.552Z,18.19
2018-06-15T05:43:04.507Z,18.26
2018-06-15T05:44:04.470Z,18.19
2018-06-15T05:45:04.425Z,18.31
2018-06-15T05:46:04.385Z,18.26
2018-06-15T05:47:04.342Z,18.28
2018-06-15T05:48:04.304Z,18.27
2018-06-15T05:49:04.264Z,18.31
2018-06-15T05:50:04.227Z,18.34
2018-06-15T05:51:04.180Z,18.37
2018-06-15T05:52:04.139Z,18.39
2018-06-15T05:53:04.096Z,18.39
2018-06-15T05:54:04.057Z,18.48
2018-06-15T05:55:04.029Z,18.51
2018-06-15T05:56:03.979Z,18.55
2018-06-15T05:57:03.935Z,18.45
2018-06-15T05:58:03.892Z,18.55
2018-06-15T05:59:03.851Z,18.70
2018-06-15T06:00:03.811Z,18.60
2018-06-15T06:01:03.772Z,18.63
2018-06-15T06:02:03.732Z,18.48
2018-06-15T06:03:03.694Z,18.52
2018-06-15T06:04:03.785Z,18.55
2018-06-15T06:05:03.613Z,18.64
2018-06-15T06:06:03.568Z,18.61
2018-06-15T06:07:03.524Z,18.57
2018-06-15T06:08:03.483Z,18.63
2018-06-15T06:09:03.444Z,18.67
2018-06-15T06:10:03.402Z,18.66
2018-06-15T06:11:03.360Z,18.76
2018-06-15T06:12:03.322Z,18.76
2018-06-15T06:13:03.277Z,18.78
2018-06-15T06:14:03.236Z,18.76
2018-06-15T06:15:03.197Z,18.74
2018-06-15T06:16:03.156Z,18.74
2018-06-15T06:17:03.114Z,18.79
2018-06-15T06:18:03.076Z,18.79
2018-06-15T06:19:03.033Z,18.83
2018-06-15T06:20:03.010Z,18.88
2018-06-15T06:21:02.951Z,18.92
2018-06-15T06:22:02.914Z,18.98
2018-06-15T06:23:02.868Z,18.88
2018-06-15T06:24:02.830Z,18.83
2018-06-15T06:25:02.788Z,18.94
2018-06-15T06:26:02.750Z,18.82
2018-06-15T06:27:02.706Z,18.86
2018-06-15T06:28:02.666Z,18.86
2018-06-15T06:29:02.623Z,18.97
2018-06-15T06:30:02.587Z,18.98
2018-06-15T06:31:02.544Z,19.01
2018-06-15T06:32:02.503Z,19.01
2018-06-15T06:33:02.462Z,19.09
2018-06-15T06:34:02.422Z,19.07
2018-06-15T06:35:02.378Z,19.15
2018-06-15T06:36:02.341Z,19.17
2018-06-15T06:37:02.300Z,19.20
2018-06-15T06:38:02.313Z,19.29
2018-06-15T06:39:02.216Z,19.24
2018-06-15T06:40:02.174Z,19.27
2018-06-15T06:41:02.141Z,19.29
2018-06-15T06:42:02.095Z,19.34
2018-06-15T06:43:02.054Z,19.29
2018-06-15T06:44:02.013Z,19.29
2018-06-15T06:45:01.975Z,19.37
2018-06-15T06:46:01.932Z,19.32
2018-06-15T06:47:01.891Z,19.37
2018-06-15T06:48:01.851Z,19.34
2018-06-15T06:49:01.812Z,19.35
2018-06-15T06:50:01.772Z,19.35
2018-06-15T06:51:01.737Z,19.38
2018-06-15T06:52:01.689Z,19.48
2018-06-15T06:53:01.652Z,19.45
2018-06-15T06:54:01.612Z,19.44
2018-06-15T06:55:01.567Z,19.44
2018-06-15T06:56:01.527Z,19.49
2018-06-15T06:57:01.503Z,19.49
2018-06-15T06:58:01.445Z,19.44
2018-06-15T06:59:01.406Z,19.44
2018-06-15T07:00:01.364Z,19.52
2018-06-15T07:01:01.326Z,19.53
2018-06-15T07:02:01.284Z,19.60
2018-06-15T07:03:01.245Z,19.64
2018-06-15T07:04:01.206Z,19.55
2018-06-15T07:05:01.163Z,19.64
2018-06-15T07:06:01.124Z,19.71
2018-06-15T07:07:01.086Z,19.63
2018-06-15T07:08:01.040Z,19.70
2018-06-15T07:09:01.004Z,19.74
2018-06-15T07:10:00.962Z,19.63
2018-06-15T07:11:00.923Z,19.67
2018-06-15T07:12:00.881Z,19.66
2018-06-15T07:13:00.843Z,19.60
2018-06-15T07:14:00.799Z,19.62
2018-06-15T07:15:00.760Z,19.72
2018-06-15T07:16:00.718Z,19.67
2018-06-15T07:17:00.683Z,19.63
2018-06-15T07:18:00.638Z,19.59
2018-06-15T07:19:00.598Z,19.63
2018-06-15T07:20:00.564Z,19.71
2018-06-15T07:21:00.517Z,19.71
2018-06-15T07:22:00.478Z,19.72
2018-06-15T07:23:00.436Z,19.74
2018-06-15T07:24:00.396Z,19.81
2018-06-15T07:25:00.356Z,19.74
2018-06-15T07:26:00.318Z,19.81
2018-06-15T07:27:00.277Z,19.81
2018-06-15T07:28:00.235Z,19.89
2018-06-15T07:29:00.198Z,19.90
2018-06-15T07:30:00.159Z,19.93
2018-06-15T07:31:00.116Z,19.82
2018-06-15T07:32:00.076Z,19.96
2018-06-15T07:33:00.043Z,19.93
2018-06-15T07:33:59.992Z,19.99
2018-06-15T07:34:59.952Z,19.99
2018-06-15T07:35:59.912Z,19.99
2018-06-15T07:36:59.871Z,20.17
2018-06-15T07:37:59.837Z,20.08
2018-06-15T07:38:59.790Z,20.10
2018-06-15T07:39:59.752Z,20.12
2018-06-15T07:40:59.713Z,20.17
2018-06-15T07:41:59.673Z,20.18
2018-06-15T07:42:59.631Z,20.32
2018-06-15T07:43:59.590Z,20.39
2018-06-15T07:44:59.555Z,20.30
2018-06-15T07:45:59.521Z,20.39
2018-06-15T07:46:59.471Z,20.44
2018-06-15T07:47:59.435Z,20.42
2018-06-15T07:48:59.393Z,20.48
2018-06-15T07:49:59.353Z,20.55
2018-06-15T07:50:59.314Z,20.53
2018-06-15T07:51:59.271Z,20.56
2018-06-15T07:52:59.230Z,20.66
2018-06-15T07:53:59.200Z,20.64
2018-06-15T07:54:59.157Z,20.66
2018-06-15T07:55:59.132Z,20.71
2018-06-15T07:56:59.074Z,20.73
2018-06-15T07:57:59.035Z,20.74
2018-06-15T07:58:58.992Z,20.80
2018-06-15T07:59:58.952Z,20.77
2018-06-15T08:00:58.911Z,20.88
2018-06-15T08:01:58.871Z,20.89
2018-06-15T08:02:58.830Z,20.95
2018-06-15T08:03:58.793Z,21.04
2018-06-15T08:04:58.752Z,21.11
2018-06-15T08:05:58.712Z,21.28
2018-06-15T08:06:58.673Z,21.35
2018-06-15T08:07:58.640Z,21.41
2018-06-15T08:08:58.598Z,21.38
2018-06-15T08:09:58.555Z,21.54
2018-06-15T08:10:58.515Z,21.58
2018-06-15T08:11:58.474Z,21.66
2018-06-15T08:12:58.436Z,21.66
2018-06-15T08:13:58.397Z,21.83
2018-06-15T08:14:58.356Z,21.91
2018-06-15T08:15:58.321Z,22.01
2018-06-15T08:16:58.280Z,22.06
2018-06-15T08:17:58.242Z,22.12
2018-06-15T08:18:58.199Z,22.22
2018-06-15T08:19:58.159Z,22.36
2018-06-15T08:20:58.121Z,22.40
2018-06-15T08:21:58.083Z,22.61
2018-06-15T08:22:58.042Z,22.53
2018-06-15T08:23:58.005Z,22.61
2018-06-15T08:24:57.965Z,22.76
2018-06-15T08:25:57.928Z,22.88
2018-06-15T08:26:57.893Z,22.92
2018-06-15T08:27:57.852Z,22.91
2018-06-15T08:28:57.809Z,23.02
2018-06-15T08:29:57.773Z,23.02
2018-06-15T08:30:57.734Z,23.01
2018-06-15T08:31:57.695Z,23.11
2018-06-15T08:32:57.657Z,23.14
2018-06-15T08:33:57.618Z,23.07
2018-06-15T08:34:57.581Z,23.18
2018-06-15T08:35:57.576Z,23.26
2018-06-15T08:36:57.506Z,23.34
2018-06-15T08:37:57.461Z,23.42
2018-06-15T08:38:57.424Z,23.37
2018-06-15T08:39:57.387Z,23.55
2018-06-15T08:40:57.348Z,23.59
2018-06-15T08:41:57.307Z,23.73
2018-06-15T08:42:57.271Z,23.77
2018-06-15T08:43:57.231Z,23.76
2018-06-15T08:44:57.195Z,23.71
2018-06-15T08:45:57.155Z,23.74
2018-06-15T08:46:57.117Z,23.64
2018-06-15T08:47:57.083Z,23.66
2018-06-15T08:48:57.040Z,23.66
2018-06-15T08:50:56.993Z,23.73
2018-06-15T08:51:56.930Z,23.66
2018-06-15T08:52:56.893Z,23.67
2018-06-15T08:53:56.850Z,23.70
2018-06-15T08:54:56.812Z,23.70
2018-06-15T08:55:56.774Z,23.59
2018-06-15T08:56:56.739Z,23.48
2018-06-15T08:57:56.697Z,23.40
2018-06-15T08:58:56.661Z,23.33
2018-06-15T08:59:56.629Z,23.29
2018-06-15T09:00:56.585Z,23.18
2018-06-15T09:01:56.603Z,23.20
2018-06-15T09:02:56.506Z,23.33
2018-06-15T09:03:56.468Z,23.40
2018-06-15T09:04:56.431Z,23.45
2018-06-15T09:05:56.392Z,23.63
2018-06-15T09:06:56.355Z,23.73
2018-06-15T09:07:56.316Z,23.71
2018-06-15T09:08:56.301Z,23.84
2018-06-15T09:09:56.241Z,23.81
2018-06-15T09:10:56.203Z,23.94
2018-06-15T09:11:56.164Z,23.84
2018-06-15T09:12:56.127Z,23.94
2018-06-15T09:13:56.087Z,24.01
2018-06-15T09:14:56.052Z,24.10
2018-06-15T09:15:56.014Z,24.10
2018-06-15T09:16:55.978Z,24.16
2018-06-15T09:17:55.939Z,24.26
2018-06-15T09:18:55.902Z,24.37
2018-06-15T09:19:55.860Z,24.31
2018-06-15T09:20:55.826Z,24.36
2018-06-15T09:21:55.784Z,24.51
2018-06-15T09:22:55.745Z,24.56
2018-06-15T09:23:55.708Z,24.66
2018-06-15T09:24:55.672Z,24.78
2018-06-15T09:25:55.631Z,24.85
2018-06-15T09:26:55.595Z,24.86
2018-06-15T09:27:55.561Z,24.96
2018-06-15T09:28:55.519Z,25.07
2018-06-15T09:29:55.538Z,25.03
2018-06-15T09:30:55.447Z,25.19
2018-06-15T09:31:55.437Z,25.21
2018-06-15T09:32:55.372Z,25.24
2018-06-15T09:33:55.332Z,25.30
2018-06-15T09:34:55.295Z,25.46
2018-06-15T09:35:55.258Z,25.43
2018-06-15T09:36:55.223Z,25.51
2018-06-15T09:37:55.183Z,25.49
2018-06-15T09:38:55.150Z,25.49
2018-06-15T09:39:55.109Z,25.63
2018-06-15T09:40:55.073Z,25.68
2018-06-15T09:41:55.035Z,25.67
2018-06-15T09:42:54.997Z,25.88
2018-06-15T09:43:54.965Z,25.88
2018-06-15T09:44:54.925Z,26.01
2018-06-15T09:45:54.892Z,26.01
2018-06-15T09:46:54.849Z,26.10
2018-06-15T09:47:54.812Z,26.18
2018-06-15T09:48:54.784Z,26.27
2018-06-15T09:49:54.744Z,26.24
2018-06-15T09:50:54.703Z,26.36
2018-06-15T09:51:54.667Z,26.46
2018-06-15T09:52:54.666Z,26.49
2018-06-15T09:53:54.634Z,26.53
2018-06-15T09:54:54.559Z,26.64
2018-06-15T09:55:54.521Z,26.70
2018-06-15T09:56:54.483Z,26.76
2018-06-15T09:57:54.445Z,26.79
2018-06-15T09:58:54.412Z,26.81
2018-06-15T09:59:54.375Z,26.92
2018-06-15T10:00:54.337Z,26.97
2018-06-15T10:01:54.307Z,26.98
2018-06-15T10:02:54.265Z,27.11
2018-06-15T10:03:54.228Z,27.15
2018-06-15T10:04:54.198Z,27.16
2018-06-15T10:05:54.156Z,27.16
2018-06-15T10:06:54.124Z,27.18
2018-06-15T10:07:54.084Z,27.16
2018-06-15T10:08:54.056Z,27.20
2018-06-15T10:09:54.016Z,27.28
2018-06-15T10:10:53.977Z,27.48
2018-06-15T10:11:53.943Z,27.64
2018-06-15T10:12:53.907Z,27.78
2018-06-15T10:13:53.869Z,27.79
2018-06-15T10:14:53.837Z,27.85
2018-06-15T10:15:53.798Z,27.90
2018-06-15T10:16:53.767Z,27.88
2018-06-15T10:17:53.725Z,27.82
2018-06-15T10:18:53.694Z,27.93
2018-06-15T10:19:53.656Z,27.90
2018-06-15T10:20:53.619Z,27.98
2018-06-15T10:21:53.585Z,27.94
2018-06-15T10:22:53.547Z,27.94
2018-06-15T10:23:53.516Z,27.86
2018-06-15T10:24:53.478Z,27.73
2018-06-15T10:25:53.443Z,27.81
2018-06-15T10:26:53.406Z,27.79
2018-06-15T10:27:53.373Z,27.61
2018-06-15T10:28:53.335Z,27.58
2018-06-15T10:29:53.299Z,27.60
2018-06-15T10:30:53.264Z,27.78
2018-06-15T10:31:53.230Z,27.79
2018-06-15T10:32:53.257Z,27.90
2018-06-15T10:33:53.157Z,28.00
2018-06-15T10:34:53.123Z,27.93
2018-06-15T10:35:53.088Z,27.97
2018-06-15T10:36:53.056Z,27.90
2018-06-15T10:37:53.018Z,27.95
2018-06-15T10:38:52.984Z,27.95
2018-06-15T10:39:52.945Z,27.88
2018-06-15T10:40:52.915Z,27.79
2018-06-15T10:41:52.873Z,27.73
2018-06-15T10:42:52.837Z,27.67
2018-06-15T10:43:52.804Z,27.76
2018-06-15T10:44:52.766Z,27.72
2018-06-15T10:45:52.732Z,27.55
2018-06-15T10:46:52.695Z,27.41
2018-06-15T10:47:52.660Z,27.47
2018-06-15T10:48:52.625Z,27.38
2018-06-15T10:49:52.590Z,27.44
2018-06-15T10:50:52.554Z,27.26
2018-06-15T10:51:52.518Z,27.38
2018-06-15T10:52:52.482Z,27.30
2018-06-15T10:53:52.448Z,27.29
2018-06-15T10:54:52.411Z,27.50
2018-06-15T10:55:52.376Z,27.47
2018-06-15T10:56:52.342Z,27.28
2018-06-15T10:57:52.306Z,27.20
2018-06-15T10:58:52.267Z,27.19
2018-06-15T10:59:52.233Z,27.05
2018-06-15T11:00:52.198Z,27.00
2018-06-15T11:01:52.161Z,26.96
2018-06-15T11:02:52.125Z,27.01
2018-06-15T11:03:52.089Z,26.93
2018-06-15T11:04:52.053Z,26.93
2018-06-15T11:05:52.017Z,26.98
2018-06-15T11:06:51.984Z,26.89
2018-06-15T11:07:51.945Z,26.98
2018-06-15T11:08:51.908Z,26.85
2018-06-15T11:09:51.874Z,26.89
2018-06-15T11:10:51.879Z,26.86
2018-06-15T11:11:51.801Z,26.81
2018-06-15T11:12:51.772Z,26.82
2018-06-15T11:13:51.729Z,26.85
2018-06-15T11:14:51.694Z,26.85
2018-06-15T11:15:51.705Z,26.88
2018-06-15T11:16:51.622Z,26.86
2018-06-15T11:17:51.583Z,26.91
2018-06-15T11:18:51.549Z,26.96
2018-06-15T11:19:51.566Z,26.89
2018-06-15T11:20:51.478Z,26.97
2018-06-15T11:21:51.443Z,26.98
2018-06-15T11:22:51.406Z,27.10
2018-06-15T11:23:51.370Z,27.19
2018-06-15T11:24:51.331Z,27.35
2018-06-15T11:25:51.294Z,27.26
2018-06-15T11:26:51.260Z,27.20
2018-06-15T11:27:51.232Z,27.15
2018-06-15T11:28:51.188Z,27.18
2018-06-15T11:29:51.158Z,27.23
2018-06-15T11:30:51.181Z,27.20
2018-06-15T11:31:51.093Z,27.20
2018-06-15T11:32:51.046Z,27.20
2018-06-15T11:33:51.015Z,27.26
2018-06-15T11:34:50.972Z,27.16
2018-06-15T11:35:50.937Z,27.04
2018-06-15T11:36:50.904Z,27.11
2018-06-15T11:37:50.865Z,27.03
2018-06-15T11:38:50.827Z,27.00
2018-06-15T11:39:50.791Z,27.00
2018-06-15T11:40:50.761Z,26.92
2018-06-15T11:41:50.727Z,26.92
2018-06-15T11:42:50.683Z,26.98
2018-06-15T11:43:50.651Z,27.16
2018-06-15T11:44:50.611Z,27.30
2018-06-15T11:45:50.585Z,27.29
2018-06-15T11:46:50.541Z,27.47
2018-06-15T11:47:50.505Z,27.58
2018-06-15T11:48:50.470Z,27.90
2018-06-15T11:49:50.434Z,28.04
2018-06-15T11:50:50.404Z,28.27
2018-06-15T11:51:50.405Z,28.50
2018-06-15T11:52:50.324Z,28.74
2018-06-15T11:53:50.292Z,29.03
2018-06-15T11:54:50.260Z,29.25
2018-06-15T11:55:50.218Z,29.62
2018-06-15T11:56:50.222Z,29.95
2018-06-15T11:57:50.159Z,30.21
2018-06-15T11:58:50.111Z,30.61
2018-06-15T11:59:50.081Z,30.89
2018-06-15T12:01:50.115Z,31.20
2018-06-15T12:02:49.977Z,31.11
2018-06-15T12:03:49.939Z,31.17
2018-06-15T12:04:49.911Z,31.39
2018-06-15T12:05:49.871Z,31.57
2018-06-15T12:06:49.842Z,31.72
2018-06-15T12:07:49.859Z,31.32
2018-06-15T12:08:49.775Z,30.92
2018-06-15T12:09:49.747Z,30.74
2018-06-15T12:10:49.704Z,30.65
2018-06-15T12:11:49.676Z,30.69
2018-06-15T12:12:49.638Z,30.78
2018-06-15T12:13:49.632Z,31.07
2018-06-15T12:14:49.571Z,30.77
2018-06-15T12:15:49.541Z,30.52
2018-06-15T12:16:49.505Z,30.24
2018-06-15T12:17:49.491Z,30.14
2018-06-15T12:18:49.443Z,29.94
2018-06-15T12:19:49.407Z,29.73
2018-06-15T12:20:49.377Z,29.47
2018-06-15T12:21:49.339Z,29.34
2018-06-15T12:22:49.308Z,29.24
2018-06-15T12:23:49.284Z,29.12
2018-06-15T12:24:49.237Z,29.13
2018-06-15T12:25:49.199Z,29.10
2018-06-15T12:26:49.168Z,29.10
2018-06-15T12:27:49.132Z,29.57
2018-06-15T12:28:49.101Z,29.90
2018-06-15T12:29:49.064Z,30.10
2018-06-15T12:30:49.035Z,29.84
2018-06-15T12:31:48.999Z,29.57
2018-06-15T12:32:49.042Z,29.34
2018-06-15T12:33:48.949Z,29.18
2018-06-15T12:34:48.894Z,29.07
2018-06-15T12:35:48.865Z,29.06
2018-06-15T12:36:48.831Z,29.64
2018-06-15T12:37:48.788Z,30.18
2018-06-15T12:38:48.758Z,30.51
2018-06-15T12:39:48.720Z,30.29
2018-06-15T12:40:48.687Z,30.54
2018-06-15T12:41:48.652Z,30.77
2018-06-15T12:42:48.617Z,31.47
2018-06-15T12:43:48.586Z,32.00
2018-06-15T12:44:48.550Z,32.76
2018-06-15T12:45:48.580Z,33.09
2018-06-15T12:46:48.486Z,33.17
2018-06-15T12:47:48.457Z,33.76
2018-06-15T12:48:48.418Z,33.76
2018-06-15T12:49:48.384Z,33.19
2018-06-15T12:50:48.348Z,32.82
2018-06-15T12:51:48.321Z,32.29
2018-06-15T12:52:48.283Z,31.93
2018-06-15T12:53:48.249Z,31.57